Time;durP1;ratioP1;P1;durP2;ratioP2;P2;SDS_P1;SDS_P2;PMS_P1;PMS_P2;Temp;Humidity;BMP_temperature;BMP_pressure;BME280_temperature;BME280_humidity;BME280_pressure;Samples;Min_cycle;Max_cycle;Signal;HPM_P1;HPM_P2
2023/10/17 00:01:34;;;;;;;1999.90;999.90;;;2.40;97.70;;;;;;5038102;28;20056;-71
2023/10/17 00:06:46;;;;;;;1999.90;999.90;;;2.40;97.70;;;;;;5046185;28;20563;-71
2023/10/17 00:09:21;;;;;;;1999.90;999.90;;;2.40;98.00;;;;;;5042439;28;20522;-72
2023/10/17 00:14:25;;;;;;;1999.90;999.90;;;2.30;97.70;;;;;;5036075;28;20068;-72
2023/10/17 00:16:57;;;;;;;1999.90;999.90;;;2.20;97.60;;;;;;5042485;28;20072;-69
2023/10/17 00:19:28;;;;;;;1999.90;999.90;;;2.20;97.70;;;;;;5035519;28;20037;-71
2023/10/17 00:21:54;;;;;;;1999.90;999.90;;;2.10;97.70;;;;;;5043544;28;20060;-71
2023/10/17 00:24:20;;;;;;;1999.90;999.90;;;2.10;98.00;;;;;;5042728;28;20837;-71
2023/10/17 00:26:48;;;;;;;1999.90;999.90;;;2.20;98.20;;;;;;5049621;28;20077;-71
2023/10/17 00:29:14;;;;;;;1999.90;999.90;;;2.20;98.20;;;;;;5043527;28;20467;-71
2023/10/17 00:31:41;;;;;;;1999.90;999.90;;;2.10;98.00;;;;;;5045499;28;20090;-71
2023/10/17 00:34:13;;;;;;;1999.90;999.90;;;2.10;98.00;;;;;;5035278;28;20420;-71
2023/10/17 00:36:49;;;;;;;1999.90;999.90;;;2.10;98.10;;;;;;5037689;28;20116;-71
2023/10/17 00:39:32;;;;;;;1999.90;999.90;;;2.00;98.10;;;;;;5050066;28;20107;-71
2023/10/17 00:44:34;;;;;;;1999.90;999.90;;;1.90;98.20;;;;;;5046121;28;20529;-71
2023/10/17 00:47:01;;;;;;;1999.90;999.90;;;1.90;98.30;;;;;;5043132;28;20045;-70
2023/10/17 00:49:37;;;;;;;1999.90;999.90;;;1.90;98.20;;;;;;5050611;28;20044;-71
2023/10/17 00:52:03;;;;;;;1999.90;999.90;;;1.90;98.30;;;;;;5042015;28;20446;-71
2023/10/17 00:54:32;;;;;;;1999.90;999.90;;;1.90;98.30;;;;;;5059557;28;20501;-71
2023/10/17 00:57:00;;;;;;;1999.90;999.90;;;1.80;98.30;;;;;;5054816;28;20478;-71
2023/10/17 00:59:32;;;;;;;1999.90;999.90;;;1.80;98.40;;;;;;5055069;28;20109;-70
2023/10/17 01:02:06;;;;;;;1999.90;999.90;;;1.80;98.60;;;;;;5042004;28;20040;-71
2023/10/17 01:04:33;;;;;;;1999.90;999.90;;;1.70;98.40;;;;;;5045973;28;20031;-71
2023/10/17 01:07:05;;;;;;;1999.90;999.90;;;1.70;98.60;;;;;;5054379;28;20035;-71
2023/10/17 01:09:34;;;;;;;1999.90;999.90;;;1.70;98.60;;;;;;5041373;28;20033;-71
2023/10/17 01:12:09;;;;;;;1999.90;999.90;;;1.70;98.60;;;;;;5051789;28;20041;-70
2023/10/17 01:14:36;;;;;;;1999.90;999.90;;;1.60;98.50;;;;;;5041337;28;20063;-70
2023/10/17 01:17:05;;;;;;;1999.90;999.90;;;1.60;98.70;;;;;;5036006;28;20034;-70
2023/10/17 01:19:33;;;;;;;1999.90;999.90;;;1.50;98.60;;;;;;5040629;28;20029;-71
2023/10/17 01:21:59;;;;;;;1999.90;999.90;;;1.50;98.60;;;;;;5034314;28;20036;-71
2023/10/17 01:24:25;;;;;;;1999.90;999.90;;;1.50;98.70;;;;;;5044455;28;20033;-71
2023/10/17 01:26:52;;;;;;;1999.90;999.90;;;1.40;98.70;;;;;;5071835;28;20078;-71
2023/10/17 01:29:18;;;;;;;1999.90;999.90;;;1.40;98.70;;;;;;5050771;28;20709;-72
2023/10/17 01:31:44;;;;;;;1999.90;999.90;;;1.40;98.80;;;;;;5048257;28;20090;-71
2023/10/17 01:34:11;;;;;;;1999.90;999.90;;;1.40;98.90;;;;;;5046460;28;20020;-70
2023/10/17 01:36:42;;;;;;;1999.90;999.90;;;1.40;99.00;;;;;;5046114;28;20035;-71
2023/10/17 01:39:11;;;;;;;;;;;1.40;98.80;;;;;;5048824;28;20095;-71
2023/10/17 01:41:48;;;;;;;1999.90;999.90;;;1.40;98.80;;;;;;5050195;28;19931;-70
2023/10/17 01:44:14;;;;;;;1999.90;999.90;;;1.30;98.90;;;;;;5046996;28;20619;-71
2023/10/17 01:46:43;;;;;;;1999.90;999.90;;;1.30;99.00;;;;;;5039322;28;20682;-71
2023/10/17 01:49:12;;;;;;;1999.90;999.90;;;1.30;99.00;;;;;;5042905;28;20029;-70
2023/10/17 01:51:42;;;;;;;1999.90;999.90;;;1.30;99.00;;;;;;5054517;28;20115;-70
2023/10/17 01:54:08;;;;;;;1999.90;999.90;;;1.30;99.30;;;;;;5059703;28;20032;-71
2023/10/17 01:56:39;;;;;;;1999.90;999.90;;;1.40;99.00;;;;;;5050508;28;20036;-70
2023/10/17 01:59:12;;;;;;;1999.90;999.90;;;1.40;99.00;;;;;;5040565;28;20116;-71
2023/10/17 02:01:40;;;;;;;1999.90;999.90;;;1.40;98.80;;;;;;5051204;28;20092;-71
2023/10/17 02:04:12;;;;;;;1999.90;999.90;;;1.40;98.80;;;;;;5052904;28;20032;-71
2023/10/17 02:06:39;;;;;;;1999.90;999.90;;;1.30;98.60;;;;;;5051046;28;20499;-71
2023/10/17 02:12:04;;;;;;;1999.90;999.90;;;1.20;98.60;;;;;;5030914;28;20384;-71
2023/10/17 02:14:30;;;;;;;1999.90;999.90;;;1.20;98.70;;;;;;5051022;28;20052;-71
2023/10/17 02:16:56;;;;;;;1999.90;999.90;;;1.20;98.70;;;;;;5047235;28;20034;-72
2023/10/17 02:19:23;;;;;;;1999.90;999.90;;;1.20;98.60;;;;;;5048420;28;20027;-71
2023/10/17 02:21:52;;;;;;;1999.90;999.90;;;1.10;98.60;;;;;;5051840;28;20115;-71
2023/10/17 02:24:21;;;;;;;1999.90;999.90;;;1.10;98.60;;;;;;5054693;28;20224;-70
2023/10/17 02:26:56;;;;;;;1999.90;999.90;;;1.10;98.60;;;;;;5047729;28;20112;-71
2023/10/17 02:29:26;;;;;;;1999.90;999.90;;;1.10;98.60;;;;;;5056192;28;20095;-70
2023/10/17 02:31:56;;;;;;;1999.90;999.90;;;1.10;98.60;;;;;;5047389;28;20070;-70
2023/10/17 02:34:23;;;;;;;1999.90;999.90;;;1.10;98.60;;;;;;5051361;28;20036;-71
2023/10/17 02:36:54;;;;;;;1999.90;999.90;;;1.10;98.70;;;;;;5053186;28;20051;-71
2023/10/17 02:39:23;;;;;;;1999.90;999.90;;;1.10;98.70;;;;;;5049147;28;20512;-71
2023/10/17 02:42:06;;;;;;;1999.90;999.90;;;1.10;98.70;;;;;;5055521;28;20382;-71
2023/10/17 02:44:32;;;;;;;1999.90;999.90;;;1.10;98.80;;;;;;5055583;28;20033;-71
2023/10/17 02:46:58;;;;;;;1999.90;999.90;;;1.10;98.70;;;;;;5050754;28;20111;-71
2023/10/17 02:49:26;;;;;;;1999.90;999.90;;;1.00;98.50;;;;;;5050055;28;20198;-71
2023/10/17 02:51:54;;;;;;;1999.90;999.90;;;1.10;98.70;;;;;;5054233;28;20033;-70
2023/10/17 02:54:27;;;;;;;1999.90;999.90;;;1.00;98.60;;;;;;5060445;28;20044;-70
2023/10/17 02:56:53;;;;;;;1999.90;999.90;;;1.10;98.80;;;;;;5051657;28;20032;-71
2023/10/17 02:59:21;;;;;;;1999.90;999.90;;;1.00;98.70;;;;;;5052400;28;20468;-71
2023/10/17 03:01:52;;;;;;;1999.90;999.90;;;1.00;98.80;;;;;;5046731;28;20479;-71
2023/10/17 03:04:23;;;;;;;1999.90;999.90;;;1.00;98.90;;;;;;5060520;28;20036;-71
2023/10/17 03:06:49;;;;;;;;;;;1.00;99.00;;;;;;5056778;28;20025;-70
2023/10/17 03:17:02;;;;;;;1999.90;999.90;;;0.90;99.10;;;;;;5048379;28;20382;-70
2023/10/17 03:19:28;;;;;;;1999.90;999.90;;;0.90;99.10;;;;;;5053086;28;20033;-70
2023/10/17 03:21:56;;;;;;;1999.90;999.90;;;1.00;99.40;;;;;;5050866;28;20103;-70
2023/10/17 03:24:41;;;;;;;1999.90;999.90;;;0.90;99.40;;;;;;5047506;28;20780;-71
2023/10/17 03:27:11;;;;;;;1999.90;999.90;;;0.90;99.40;;;;;;5056986;28;20761;-69
2023/10/17 03:29:46;;;;;;;1999.90;999.90;;;1.00;99.40;;;;;;5051704;28;20041;-72
2023/10/17 03:32:12;;;;;;;1999.90;999.90;;;1.00;99.30;;;;;;5038850;28;20069;-71
2023/10/17 03:34:44;;;;;;;1999.90;999.90;;;1.00;99.50;;;;;;5064300;28;20100;-72
2023/10/17 03:39:55;;;;;;;1999.90;999.90;;;1.00;99.20;;;;;;5058158;28;20041;-70
2023/10/17 03:45:17;;;;;;;1999.90;999.90;;;0.90;99.30;;;;;;5057381;28;20035;-70
2023/10/17 03:47:52;;;;;;;1999.90;999.90;;;1.00;99.20;;;;;;5046581;28;20037;-70
2023/10/17 03:55:48;;;;;;;1999.90;999.90;;;1.10;99.40;;;;;;5047988;28;20036;-70
2023/10/17 04:00:52;;;;;;;1999.90;999.90;;;1.10;99.30;;;;;;5046225;28;20402;-71
2023/10/17 04:03:25;;;;;;;1999.90;999.90;;;1.20;99.20;;;;;;5057080;28;20059;-71
2023/10/17 04:06:03;;;;;;;1999.90;999.90;;;1.20;99.20;;;;;;5053170;28;20429;-70
2023/10/17 04:08:37;;;;;;;1999.90;999.90;;;1.20;99.10;;;;;;5051582;28;20029;-71
2023/10/17 04:11:25;;;;;;;1999.90;999.90;;;1.30;99.10;;;;;;5044554;28;20041;-71
2023/10/17 04:14:00;;;;;;;1999.90;999.90;;;1.30;99.00;;;;;;5046828;28;20499;-71
2023/10/17 04:16:33;;;;;;;1999.90;999.90;;;1.30;99.00;;;;;;5050019;28;20041;-70
2023/10/17 04:19:16;;;;;;;1999.90;999.90;;;1.30;99.10;;;;;;5052498;28;20073;-69
2023/10/17 04:21:49;;;;;;;1999.90;999.90;;;1.30;99.00;;;;;;5047111;28;20579;-69
2023/10/17 04:24:27;;;;;;;1999.90;999.90;;;1.40;99.00;;;;;;5039340;28;20032;-69
2023/10/17 04:27:06;;;;;;;1999.90;999.90;;;1.60;99.10;;;;;;5050551;28;20089;-69
2023/10/17 04:29:35;;;;;;;1999.90;999.90;;;1.60;99.10;;;;;;5052404;28;20029;-70
2023/10/17 04:32:01;;;;;;;1999.90;999.90;;;1.60;99.10;;;;;;5052322;28;20033;-70
2023/10/17 04:34:32;;;;;;;1999.90;999.90;;;1.60;98.80;;;;;;5048616;28;20035;-71
2023/10/17 04:37:03;;;;;;;1999.90;999.90;;;1.50;98.70;;;;;;5035462;28;20507;-71
2023/10/17 04:39:35;;;;;;;1999.90;999.90;;;1.60;98.90;;;;;;5047546;28;20033;-70
2023/10/17 04:44:39;;;;;;;1999.90;999.90;;;1.60;98.90;;;;;;5046518;28;20039;-71
2023/10/17 04:49:55;;;;;;;1999.90;999.90;;;1.60;98.70;;;;;;5051064;28;20479;-72
2023/10/17 04:52:28;;;;;;;1999.90;999.90;;;1.80;98.70;;;;;;5043759;28;20041;-71
2023/10/17 04:54:58;;;;;;;1999.90;999.90;;;1.70;98.20;;;;;;5046080;28;20112;-72
2023/10/17 04:57:48;;;;;;;1999.90;999.90;;;1.60;98.30;;;;;;5051290;28;20040;-71
2023/10/17 05:00:11;;;;;;;1999.90;999.90;;;1.70;98.50;;;;;;5043342;28;20630;-71
2023/10/17 05:02:38;;;;;;;1999.90;999.90;;;1.70;98.40;;;;;;5052435;28;20032;-71
2023/10/17 05:07:34;;;;;;;1999.90;999.90;;;1.80;98.20;;;;;;5046945;28;20472;-71
2023/10/17 06:18:32;;;;;;;1999.90;999.90;;;2.20;97.40;;;;;;5048123;28;20047;-76
2023/10/17 06:26:07;;;;;;;1999.90;999.90;;;2.00;97.80;;;;;;5042729;28;20064;-75
2023/10/17 06:28:46;;;;;;;1999.90;999.90;;;2.00;97.40;;;;;;5048761;28;20036;-76
2023/10/17 06:34:00;;;;;;;1999.90;999.90;;;2.10;97.70;;;;;;5049295;28;20683;-76
2023/10/17 06:36:30;;;;;;;1999.90;999.90;;;2.30;97.80;;;;;;5049553;28;20032;-76
2023/10/17 06:38:56;;;;;;;1999.90;999.90;;;2.30;97.40;;;;;;5053745;28;20630;-75
2023/10/17 06:41:28;;;;;;;1999.90;999.90;;;2.30;96.80;;;;;;5055887;28;20071;-73
2023/10/17 06:43:58;;;;;;;1999.90;999.90;;;2.20;97.00;;;;;;5051834;28;20658;-73
2023/10/17 06:46:30;;;;;;;1999.90;999.90;;;2.40;97.30;;;;;;5046622;28;20025;-71
2023/10/17 06:49:06;;;;;;;1999.90;999.90;;;2.40;97.20;;;;;;5058855;28;20029;-72
2023/10/17 06:51:49;;;;;;;1999.90;999.90;;;2.50;96.90;;;;;;5059250;28;20041;-72
2023/10/17 06:54:24;;;;;;;1999.90;999.90;;;2.50;96.60;;;;;;5048413;28;20044;-73
2023/10/17 06:56:54;;;;;;;1999.90;999.90;;;2.60;96.30;;;;;;5053762;28;20105;-73
2023/10/17 06:59:35;;;;;;;;;;;2.30;96.30;;;;;;5055076;28;20036;-75
2023/10/17 07:02:10;;;;;;;1999.90;999.90;;;2.30;96.60;;;;;;5052520;28;19969;-72
2023/10/17 07:04:37;;;;;;;1999.90;999.90;;;2.40;96.90;;;;;;5044617;28;20336;-73
2023/10/17 07:07:04;;;;;;;1999.90;999.90;;;2.60;97.00;;;;;;5056469;28;20072;-72
2023/10/17 07:09:37;;;;;;;1999.90;999.90;;;2.60;96.60;;;;;;5048642;28;20033;-72
2023/10/17 07:12:04;;;;;;;1999.90;999.90;;;2.70;96.90;;;;;;5050689;28;20087;-73
2023/10/17 07:14:30;;;;;;;1999.90;999.90;;;2.90;97.00;;;;;;5050643;28;20040;-73
2023/10/17 07:17:00;;;;;;;1999.90;999.90;;;2.80;96.70;;;;;;5045874;28;20082;-72
2023/10/17 07:22:05;;;;;;;1999.90;999.90;;;3.10;96.50;;;;;;5048155;28;20111;-73
2023/10/17 07:24:52;;;;;;;1999.90;999.90;;;3.20;96.00;;;;;;5055793;28;20044;-72
2023/10/17 07:27:27;;;;;;;1999.90;999.90;;;3.10;95.90;;;;;;5053506;28;20032;-72
2023/10/17 07:29:58;;;;;;;1999.90;999.90;;;3.10;96.00;;;;;;5052902;28;20052;-73
2023/10/17 07:32:25;;;;;;;1999.90;999.90;;;3.40;95.90;;;;;;5049355;28;20045;-73
2023/10/17 07:34:52;;;;;;;1999.90;999.90;;;3.10;95.40;;;;;;5048788;28;20021;-73
2023/10/17 07:40:17;;;;;;;1999.90;999.90;;;3.00;95.00;;;;;;5055070;28;20039;-73
2023/10/17 07:42:45;;;;;;;1999.90;999.90;;;3.20;95.30;;;;;;5047868;28;20726;-72
2023/10/17 07:45:14;;;;;;;1999.90;999.90;;;2.90;95.20;;;;;;5049943;28;20029;-73
2023/10/17 07:47:53;;;;;;;1999.90;999.90;;;3.10;95.40;;;;;;5052852;28;20024;-72
2023/10/17 07:50:20;;;;;;;1999.90;999.90;;;3.00;94.50;;;;;;5051683;28;20403;-72
2023/10/17 07:52:59;;;;;;;1999.90;999.90;;;3.20;95.10;;;;;;5051760;28;20032;-73
2023/10/17 07:55:37;;;;;;;1999.90;999.90;;;3.20;95.20;;;;;;5044788;28;20415;-73
2023/10/17 07:58:06;;;;;;;1999.90;999.90;;;3.30;95.50;;;;;;5041489;28;20095;-72
2023/10/17 08:00:36;;;;;;;1999.90;999.90;;;3.20;95.10;;;;;;5051395;28;20028;-73
2023/10/17 08:03:15;;;;;;;1999.90;999.90;;;3.10;95.30;;;;;;5049101;28;20119;-73
2023/10/17 08:08:46;;;;;;;1999.90;999.90;;;3.50;94.70;;;;;;5044416;28;20044;-73
2023/10/17 08:11:36;;;;;;;1999.90;999.90;;;3.50;94.20;;;;;;5040436;28;20078;-72
2023/10/17 08:14:03;;;;;;;1999.90;999.90;;;3.60;94.30;;;;;;5047986;28;20806;-73
2023/10/17 08:16:29;;;;;;;1999.90;999.90;;;3.40;94.00;;;;;;5046858;28;20025;-73
2023/10/17 08:20:00;;;;;;;1999.90;999.90;;;3.60;94.00;;;;;;5044805;28;20044;-73
2023/10/17 08:22:09;;;;;;;1999.90;999.90;;;3.50;94.40;;;;;;5046509;28;20791;-72
2023/10/17 08:27:17;;;;;;;1999.90;999.90;;;3.60;94.50;;;;;;5050188;28;20956;-73
2023/10/17 08:29:49;;;;;;;1999.90;999.90;;;3.70;94.30;;;;;;5047621;28;20041;-73
2023/10/17 08:37:45;;;;;;;1999.90;999.90;;;3.80;92.50;;;;;;5035617;28;20075;-72
2023/10/17 08:43:22;;;;;;;1999.90;999.90;;;3.80;93.10;;;;;;5007223;28;20117;-72
2023/10/17 08:45:54;;;;;;;1999.90;999.90;;;3.90;93.20;;;;;;5068337;28;20037;-73
2023/10/17 08:48:19;;;;;;;1999.90;999.90;;;4.00;93.40;;;;;;5050710;28;20041;-72
2023/10/17 08:50:45;;;;;;;1999.90;999.90;;;4.10;93.30;;;;;;5054658;28;20037;-75
2023/10/17 08:55:43;;;;;;;1999.90;999.90;;;4.50;93.70;;;;;;5049107;28;20044;-73
2023/10/17 08:58:10;;;;;;;1999.90;999.90;;;4.90;93.90;;;;;;5057927;28;20028;-75
2023/10/17 09:03:23;;;;;;;1999.90;999.90;;;4.40;92.60;;;;;;5054629;28;20060;-73
2023/10/17 09:06:28;;;;;;;1999.90;999.90;;;4.70;92.60;;;;;;5050955;28;20024;-74
2023/10/17 09:11:33;;;;;;;1999.90;999.90;;;4.60;93.20;;;;;;5049859;28;20056;-73
2023/10/17 09:19:43;;;;;;;1999.90;999.90;;;4.90;92.30;;;;;;5062682;28;20032;-74
2023/10/17 09:22:10;;;;;;;1999.90;999.90;;;4.90;92.50;;;;;;5055239;28;20438;-75
2023/10/17 09:24:36;;;;;;;1999.90;999.90;;;4.70;91.90;;;;;;5055737;28;20491;-73
2023/10/17 09:27:06;;;;;;;1999.90;999.90;;;4.50;92.60;;;;;;5056619;28;20054;-74
2023/10/17 09:29:45;;;;;;;1999.90;999.90;;;4.50;92.90;;;;;;5050352;28;20037;-74
2023/10/17 09:32:11;;;;;;;1999.90;999.90;;;4.70;92.30;;;;;;5047976;28;20095;-74
2023/10/17 09:34:40;;;;;;;1999.90;999.90;;;4.80;92.60;;;;;;5051390;28;20037;-73
2023/10/17 09:37:12;;;;;;;1999.90;999.90;;;5.00;91.80;;;;;;5053517;28;20482;-73
2023/10/17 09:39:46;;;;;;;1999.90;999.90;;;5.00;91.60;;;;;;5048468;28;20056;-74
2023/10/17 09:42:13;;;;;;;1999.90;999.90;;;5.10;91.80;;;;;;5050013;28;20380;-75
2023/10/17 09:44:40;;;;;;;1999.90;999.90;;;5.70;90.40;;;;;;5042925;28;20067;-74
2023/10/17 09:47:08;;;;;;;1999.90;999.90;;;5.80;89.30;;;;;;5054498;28;20043;-75
2023/10/17 09:49:49;;;;;;;1999.90;999.90;;;5.80;88.50;;;;;;5056672;28;20082;-73
2023/10/17 09:52:19;;;;;;;1999.90;999.90;;;5.70;90.10;;;;;;5048148;28;20041;-74
2023/10/17 09:54:51;;;;;;;1999.90;999.90;;;5.30;90.60;;;;;;5052756;28;20039;-74
2023/10/17 09:57:20;;;;;;;1999.90;999.90;;;5.50;90.40;;;;;;5053397;28;20039;-75
2023/10/17 10:00:27;;;;;;;1999.90;999.90;;;5.80;89.20;;;;;;5060051;28;20032;-74
2023/10/17 10:02:56;;;;;;;1999.90;999.90;;;6.00;89.60;;;;;;5030090;28;20090;-74
2023/10/17 10:05:28;;;;;;;1999.90;999.90;;;5.70;88.50;;;;;;5049359;28;20025;-75
2023/10/17 10:07:55;;;;;;;1999.90;999.90;;;5.70;88.80;;;;;;5054695;28;20055;-72
2023/10/17 10:11:00;;;;;;;1999.90;999.90;;;5.70;89.30;;;;;;5053886;28;20025;-75
2023/10/17 10:13:26;;;;;;;1999.90;999.90;;;5.40;90.20;;;;;;4999603;28;20560;-74
2023/10/17 10:15:52;;;;;;;1999.90;999.90;;;5.60;87.60;;;;;;5002666;28;20084;-79
2023/10/17 10:18:40;;;;;;;1999.90;999.90;;;5.70;90.30;;;;;;5022938;28;20113;-77
2023/10/17 10:21:07;;;;;;;1999.90;999.90;;;5.90;90.30;;;;;;5048508;28;20115;-79
2023/10/17 10:23:39;;;;;;;1999.90;999.90;;;6.10;88.70;;;;;;5058961;28;20045;-78
2023/10/17 10:26:10;;;;;;;1999.90;999.90;;;6.30;88.40;;;;;;5043139;28;20021;-80
2023/10/17 10:28:40;;;;;;;1999.90;999.90;;;6.50;87.40;;;;;;5051988;28;20021;-79
2023/10/17 10:31:21;;;;;;;1999.90;999.90;;;7.20;86.30;;;;;;5047871;28;20087;-79
2023/10/17 10:33:54;;;;;;;1999.90;999.90;;;6.70;84.30;;;;;;5012359;28;1201757;-78
2023/10/17 10:36:23;;;;;;;1999.90;999.90;;;6.50;83.90;;;;;;5052362;28;20029;-81
2023/10/17 10:38:50;;;;;;;1999.90;999.90;;;6.50;85.00;;;;;;5045253;28;20087;-80
2023/10/17 10:41:17;;;;;;;1999.90;999.90;;;6.50;85.50;;;;;;5083110;28;20495;-79
2023/10/17 10:43:44;;;;;;;1999.90;999.90;;;7.00;83.00;;;;;;5056278;28;20491;-80
2023/10/17 10:46:11;;;;;;;1999.90;999.90;;;7.40;81.80;;;;;;5056004;28;20103;-82
2023/10/17 10:48:45;;;;;;;1999.90;999.90;;;7.30;83.50;;;;;;5054109;28;20702;-79
2023/10/17 10:51:15;;;;;;;1999.90;999.90;;;7.50;80.40;;;;;;5053741;28;20032;-77
2023/10/17 10:53:44;;;;;;;1999.90;999.90;;;7.30;81.60;;;;;;5050139;28;20468;-76
2023/10/17 10:56:11;;;;;;;1999.90;999.90;;;7.30;81.60;;;;;;5046652;28;20033;-77
2023/10/17 10:59:04;;;;;;;1999.90;999.90;;;6.90;83.70;;;;;;5051650;28;20052;-83
2023/10/17 11:01:30;;;;;;;1999.90;999.90;;;7.00;85.40;;;;;;5039664;28;20553;-76
2023/10/17 11:03:58;;;;;;;1999.90;999.90;;;7.00;83.40;;;;;;5040617;28;20040;-77
2023/10/17 11:06:27;;;;;;;1999.90;999.90;;;6.80;83.70;;;;;;5044687;28;20111;-77
2023/10/17 11:08:56;;;;;;;1999.90;999.90;;;6.50;86.10;;;;;;5052032;28;20036;-78
2023/10/17 11:11:22;;;;;;;1999.90;999.90;;;6.60;88.20;;;;;;5037046;28;20040;-80
2023/10/17 11:13:52;;;;;;;1999.90;999.90;;;7.20;84.30;;;;;;5057583;28;20114;-81
2023/10/17 11:16:24;;;;;;;1999.90;999.90;;;7.30;81.80;;;;;;5053649;28;20040;-83
2023/10/17 11:18:50;;;;;;;1999.90;999.90;;;7.00;85.10;;;;;;5050561;28;20139;-82
2023/10/17 11:21:21;;;;;;;1999.90;999.90;;;6.90;88.70;;;;;;5051979;28;20515;-82
2023/10/17 11:24:04;;;;;;;1999.90;999.90;;;6.90;86.00;;;;;;5055027;28;20037;-83
2023/10/17 11:26:33;;;;;;;1999.90;999.90;;;7.30;83.70;;;;;;5047574;28;20032;-83
2023/10/17 11:29:02;;;;;;;1999.90;999.90;;;7.10;84.80;;;;;;5050522;28;20386;-84
2023/10/17 11:31:29;;;;;;;1999.90;999.90;;;7.20;83.50;;;;;;5049222;28;20036;-80
2023/10/17 11:34:12;;;;;;;1999.90;999.90;;;6.80;86.60;;;;;;5040319;28;20684;-83
2023/10/17 11:36:50;;;;;;;1999.90;999.90;;;6.80;87.70;;;;;;5051929;28;20036;-79
2023/10/17 11:39:16;;;;;;;1999.90;999.90;;;6.80;87.80;;;;;;5050133;28;20098;-80
2023/10/17 11:41:55;;;;;;;1999.90;999.90;;;6.70;86.90;;;;;;5049240;28;20052;-78
2023/10/17 11:44:27;;;;;;;1999.90;999.90;;;7.10;85.50;;;;;;5048469;28;20040;-78
2023/10/17 11:47:18;;;;;;;1999.90;999.90;;;7.00;85.30;;;;;;5047960;28;20391;-78
2023/10/17 11:49:43;;;;;;;1999.90;999.90;;;7.00;84.70;;;;;;5042173;28;20506;-78
2023/10/17 11:52:10;;;;;;;1999.90;999.90;;;6.90;86.00;;;;;;5030964;28;20118;-78
2023/10/17 11:55:00;;;;;;;1999.90;999.90;;;7.00;85.40;;;;;;5042459;28;20029;-77
2023/10/17 11:57:28;;;;;;;1999.90;999.90;;;7.20;85.20;;;;;;5057017;28;20028;-78
2023/10/17 12:00:06;;;;;;;1999.90;999.90;;;7.30;87.60;;;;;;5049791;28;20037;-79
2023/10/17 12:02:33;;;;;;;1999.90;999.90;;;7.80;85.60;;;;;;5050289;28;20119;-80
2023/10/17 12:05:03;;;;;;;1999.90;999.90;;;7.50;83.80;;;;;;5045566;28;20104;-79
2023/10/17 12:07:29;;;;;;;1999.90;999.90;;;7.50;85.70;;;;;;5057315;28;20021;-79
2023/10/17 12:10:03;;;;;;;1999.90;999.90;;;7.30;85.20;;;;;;5051094;28;20060;-79
2023/10/17 12:12:30;;;;;;;1999.90;999.90;;;7.20;85.60;;;;;;5048057;28;20032;-83
2023/10/17 12:14:57;;;;;;;1999.90;999.90;;;7.20;86.40;;;;;;5043015;28;20048;-80
2023/10/17 12:17:23;;;;;;;1999.90;999.90;;;7.30;86.30;;;;;;5030940;28;20558;-81
2023/10/17 12:19:51;;;;;;;1999.90;999.90;;;7.60;84.20;;;;;;5047718;28;20052;-80
2023/10/17 12:22:17;;;;;;;1999.90;999.90;;;7.80;85.10;;;;;;5050320;28;20032;-81
2023/10/17 12:24:42;;;;;;;1999.90;999.90;;;7.80;84.70;;;;;;5047436;28;20116;-78
2023/10/17 12:27:12;;;;;;;1999.90;999.90;;;8.20;83.70;;;;;;5053511;28;20055;-78
2023/10/17 12:29:38;;;;;;;1999.90;999.90;;;8.10;83.50;;;;;;5046832;28;20029;-80
2023/10/17 12:32:05;;;;;;;1999.90;999.90;;;8.20;84.60;;;;;;5057617;28;20106;-79
2023/10/17 12:34:32;;;;;;;1999.90;999.90;;;8.20;82.90;;;;;;5037396;28;20059;-80
2023/10/17 12:37:02;;;;;;;1999.90;999.90;;;8.10;83.40;;;;;;5048564;28;20031;-80
2023/10/17 12:39:31;;;;;;;1999.90;999.90;;;7.90;83.90;;;;;;5039004;28;20423;-81
2023/10/17 12:41:57;;;;;;;1999.90;999.90;;;7.60;86.00;;;;;;5045200;28;20065;-80
2023/10/17 12:44:25;;;;;;;1999.90;999.90;;;7.70;85.40;;;;;;5060099;28;20090;-79
2023/10/17 12:46:51;;;;;;;1999.90;999.90;;;7.80;85.00;;;;;;5063964;28;20821;-83
2023/10/17 12:49:19;;;;;;;1999.90;999.90;;;7.90;86.10;;;;;;5044532;28;20049;-80
2023/10/17 12:51:47;;;;;;;1999.90;999.90;;;8.20;85.10;;;;;;5050760;28;20084;-80
2023/10/17 12:54:12;;;;;;;1999.90;999.90;;;8.10;86.20;;;;;;5043796;28;20021;-82
2023/10/17 12:56:39;;;;;;;1999.90;999.90;;;8.20;84.00;;;;;;5047962;28;20040;-80
2023/10/17 12:59:07;;;;;;;1999.90;999.90;;;8.10;83.90;;;;;;5056942;28;20033;-82
2023/10/17 13:01:32;;;;;;;1999.90;999.90;;;8.40;83.50;;;;;;5049821;28;20059;-77
2023/10/17 13:03:58;;;;;;;1999.90;999.90;;;8.30;83.80;;;;;;5047527;28;20045;-80
2023/10/17 13:06:25;;;;;;;1999.90;999.90;;;8.30;84.60;;;;;;5045432;28;20638;-81
2023/10/17 13:09:01;;;;;;;1999.90;999.90;;;8.50;83.20;;;;;;5055949;28;20122;-84
2023/10/17 13:11:28;;;;;;;1999.90;999.90;;;8.50;83.40;;;;;;5054582;28;20036;-80
2023/10/17 13:13:54;;;;;;;1999.90;999.90;;;8.70;82.40;;;;;;5047641;28;20071;-81
2023/10/17 13:16:23;;;;;;;1999.90;999.90;;;8.80;83.50;;;;;;5047290;28;20487;-80
2023/10/17 13:18:50;;;;;;;1999.90;999.90;;;8.60;83.20;;;;;;5046856;28;20052;-80
2023/10/17 13:21:17;;;;;;;1999.90;999.90;;;8.70;82.40;;;;;;5047827;28;20495;-80
2023/10/17 13:23:44;;;;;;;1999.90;999.90;;;8.60;83.50;;;;;;5058879;28;20037;-81
2023/10/17 13:26:21;;;;;;;1999.90;999.90;;;8.50;83.10;;;;;;5053345;28;20083;-82
2023/10/17 13:28:47;;;;;;;1999.90;999.90;;;8.50;84.40;;;;;;5053476;28;20040;-81
2023/10/17 13:31:14;;;;;;;1999.90;999.90;;;8.60;83.40;;;;;;5058269;28;20605;-80
2023/10/17 13:33:53;;;;;;;1999.90;999.90;;;8.70;83.80;;;;;;5061059;28;20057;-80
2023/10/17 13:36:20;;;;;;;1999.90;999.90;;;8.80;83.70;;;;;;5054613;28;20043;-79
2023/10/17 13:38:46;;;;;;;1999.90;999.90;;;9.10;82.00;;;;;;5054268;28;20645;-79
2023/10/17 13:41:15;;;;;;;1999.90;999.90;;;9.10;82.60;;;;;;5045202;28;20044;-81
2023/10/17 13:43:42;;;;;;;1999.90;999.90;;;8.90;83.10;;;;;;5058328;28;20079;-78
2023/10/17 13:46:12;;;;;;;1999.90;999.90;;;9.10;82.60;;;;;;5060851;28;20039;-81
2023/10/17 13:48:50;;;;;;;1999.90;999.90;;;9.10;82.20;;;;;;5058074;28;20423;-83
2023/10/17 13:51:17;;;;;;;1999.90;999.90;;;9.30;81.50;;;;;;5056616;28;20041;-81
2023/10/17 13:53:46;;;;;;;1999.90;999.90;;;9.60;80.00;;;;;;5051801;28;20671;-81
2023/10/17 13:56:13;;;;;;;1999.90;999.90;;;9.40;80.10;;;;;;5059397;28;20107;-83
2023/10/17 13:58:41;;;;;;;1999.90;999.90;;;9.40;80.80;;;;;;5056161;28;20033;-78
2023/10/17 14:01:27;;;;;;;1999.90;999.90;;;9.30;81.20;;;;;;5052326;28;20562;-80
2023/10/17 14:03:56;;;;;;;1999.90;999.90;;;9.20;80.60;;;;;;5047071;28;20036;-78
2023/10/17 14:06:22;;;;;;;1999.90;999.90;;;9.00;83.00;;;;;;5049262;28;20124;-81
2023/10/17 14:08:49;;;;;;;1999.90;999.90;;;9.10;83.20;;;;;;5054585;28;20407;-78
2023/10/17 14:11:18;;;;;;;1999.90;999.90;;;8.90;81.60;;;;;;5051466;28;20025;-78
2023/10/17 14:13:54;;;;;;;1999.90;999.90;;;9.10;81.60;;;;;;5049561;28;20052;-79
2023/10/17 14:16:23;;;;;;;1999.90;999.90;;;9.20;82.70;;;;;;5050863;28;20037;-80
2023/10/17 14:19:12;;;;;;;1999.90;999.90;;;9.70;81.10;;;;;;5051099;28;20082;-79
2023/10/17 14:22:33;;;;;;;1999.90;999.90;;;10.10;79.70;;;;;;5050678;28;20032;-79
2023/10/17 14:24:38;;;;;;;1999.90;999.90;;;11.20;75.70;;;;;;5047576;28;20383;-79
2023/10/17 14:27:11;;;;;;;1999.90;999.90;;;11.90;72.80;;;;;;5045362;28;20078;-81
2023/10/17 14:29:42;;;;;;;1999.90;999.90;;;12.90;68.00;;;;;;5047512;28;20033;-81
2023/10/17 14:32:08;;;;;;;1999.90;999.90;;;13.20;66.50;;;;;;5050684;28;20045;-82
2023/10/17 14:34:37;;;;;;;1999.90;999.90;;;13.20;66.40;;;;;;5050290;28;20682;-80
2023/10/17 14:37:07;;;;;;;1999.90;999.90;;;12.00;68.10;;;;;;5056695;28;20361;-80
2023/10/17 14:39:33;;;;;;;1999.90;999.90;;;11.80;70.00;;;;;;5050864;28;20804;-80
2023/10/17 14:41:59;;;;;;;1999.90;999.90;;;11.10;71.70;;;;;;5053120;28;20040;-81
2023/10/17 14:44:29;;;;;;;1999.90;999.90;;;10.60;73.10;;;;;;5053988;28;20044;-79
2023/10/17 14:46:57;;;;;;;1999.90;999.90;;;10.30;74.90;;;;;;5053221;28;20025;-81
2023/10/17 14:49:35;;;;;;;1999.90;999.90;;;10.00;76.90;;;;;;5047526;28;20029;-79
2023/10/17 14:52:01;;;;;;;1999.90;999.90;;;9.90;78.30;;;;;;5050680;28;20092;-78
2023/10/17 14:54:27;;;;;;;1999.90;999.90;;;10.10;77.40;;;;;;5053677;28;20044;-82
2023/10/17 14:56:53;;;;;;;1999.90;999.90;;;9.90;77.40;;;;;;5052975;28;20132;-79